createdAt,value
2023-02-26T00:00:24.160Z,1.45
2023-02-26T00:04:40.044Z,1.30
2023-02-26T00:24:56.247Z,1.34
2023-02-26T00:28:52.286Z,1.43
2023-02-26T00:32:49.636Z,1.42
2023-02-26T00:36:38.983Z,1.41
2023-02-26T01:01:00.544Z,1.32
2023-02-26T01:05:22.286Z,1.15
2023-02-26T01:09:57.700Z,1.09
2023-02-26T01:35:24.928Z,0.77
2023-02-26T01:39:17.727Z,0.74
2023-02-26T01:43:10.268Z,0.74
2023-02-26T01:47:03.715Z,0.77
2023-02-26T01:50:46.646Z,0.84
2023-02-26T01:54:39.810Z,0.84
2023-02-26T02:31:19.562Z,0.84
2023-02-26T02:35:22.415Z,0.78
2023-02-26T02:39:14.375Z,0.72
2023-02-26T02:43:23.072Z,0.71
2023-02-26T02:47:13.935Z,0.89
2023-02-26T02:55:13.363Z,0.74
2023-02-26T03:08:02.043Z,0.49
2023-02-26T03:11:58.604Z,0.45
2023-02-26T03:16:00.564Z,0.41
2023-02-26T03:20:19.059Z,0.28
2023-02-26T03:24:14.035Z,0.17
2023-02-26T03:57:34.568Z,0.15
2023-02-26T04:01:34.864Z,0.11
2023-02-26T04:05:40.706Z,0.06
2023-02-26T04:18:02.982Z,0.07
2023-02-26T04:22:12.737Z,0.09
2023-02-26T04:26:07.590Z,0.10
2023-02-26T04:59:07.734Z,0.07
2023-02-26T05:20:18.111Z,0.17
2023-02-26T05:24:39.048Z,0.17
2023-02-26T05:28:33.937Z,0.14
2023-02-26T05:32:36.037Z,0.08
2023-02-26T05:37:02.846Z,0.13
2023-02-26T05:41:32.867Z,0.21
2023-02-26T05:45:33.708Z,0.28
2023-02-26T05:53:19.671Z,0.35
2023-02-26T06:18:23.842Z,0.27
2023-02-26T06:22:22.252Z,0.27
2023-02-26T06:38:39.170Z,0.35
2023-02-26T06:42:30.392Z,0.43
2023-02-26T06:46:39.390Z,0.47
2023-02-26T06:50:31.291Z,0.46
2023-02-26T06:54:23.081Z,0.43
2023-02-26T07:26:39.420Z,1.43
2023-02-26T07:30:35.675Z,1.78
2023-02-26T07:34:31.248Z,1.85
2023-02-26T07:38:21.649Z,1.74
2023-02-26T07:51:11.268Z,1.67
2023-02-26T08:16:06.762Z,2.98
2023-02-26T08:19:55.355Z,3.23
2023-02-26T08:23:54.394Z,3.26
2023-02-26T08:27:45.258Z,3.10
2023-02-26T08:31:34.089Z,2.86
2023-02-26T08:44:18.132Z,2.66
2023-02-26T08:48:21.685Z,2.90
2023-02-26T08:52:45.968Z,3.08
2023-02-26T08:56:34.177Z,3.53
2023-02-26T09:13:47.860Z,3.88
2023-02-26T09:17:24.904Z,3.67
2023-02-26T09:21:38.183Z,3.56
2023-02-26T09:25:49.864Z,3.62
2023-02-26T09:30:02.835Z,3.76
2023-02-26T09:46:03.331Z,5.06
2023-02-26T09:49:54.268Z,5.94
2023-02-26T09:54:00.123Z,7.31
2023-02-26T09:57:50.056Z,8.11
2023-02-26T10:01:37.394Z,8.10
2023-02-26T10:05:25.622Z,8.55
2023-02-26T10:20:46.832Z,6.10
2023-02-26T10:25:06.899Z,5.52
2023-02-26T10:41:07.210Z,4.78
2023-02-26T10:45:29.338Z,4.89
2023-02-26T10:53:28.777Z,5.60
2023-02-26T11:08:41.672Z,4.76
2023-02-26T11:21:23.710Z,8.83
2023-02-26T11:24:57.732Z,8.24
2023-02-26T11:29:00.918Z,7.58
2023-02-26T11:41:06.888Z,6.77
2023-02-26T11:45:16.075Z,6.68
2023-02-26T11:49:12.555Z,6.29
2023-02-26T11:52:56.886Z,5.90
2023-02-26T11:57:18.535Z,5.45
2023-02-26T12:01:23.724Z,5.49
2023-02-26T12:04:48.851Z,7.46
2023-02-26T12:08:20.174Z,8.29
2023-02-26T12:11:24.907Z,9.51
2023-02-26T12:14:33.933Z,10.51
2023-02-26T12:17:39.910Z,11.59
2023-02-26T12:20:41.396Z,11.25
2023-02-26T12:24:27.033Z,10.47
2023-02-26T12:28:24.500Z,9.45
2023-02-26T12:32:23.533Z,8.57
2023-02-26T12:35:44.276Z,8.11
2023-02-26T12:38:33.125Z,9.51
2023-02-26T12:41:48.038Z,9.98
2023-02-26T12:45:25.657Z,9.79
2023-02-26T12:49:18.573Z,8.86
2023-02-26T12:53:28.068Z,8.12
2023-02-26T12:57:17.526Z,7.33
2023-02-26T13:01:32.907Z,6.69
2023-02-26T13:05:38.319Z,7.28
2023-02-26T13:09:55.767Z,8.67
2023-02-26T13:13:48.926Z,8.73
2023-02-26T13:17:30.014Z,8.14
2023-02-26T13:21:15.369Z,7.58
2023-02-26T13:25:19.014Z,6.91
2023-02-26T13:29:17.672Z,6.38
2023-02-26T13:33:14.204Z,6.21
2023-02-26T13:37:09.647Z,6.10
2023-02-26T13:40:58.375Z,6.23
2023-02-26T13:45:07.211Z,6.07
2023-02-26T13:49:27.984Z,5.88
2023-02-26T13:54:06.755Z,5.65
2023-02-26T13:57:47.876Z,5.55
2023-02-26T14:01:55.907Z,5.40
2023-02-26T14:06:13.013Z,5.19
2023-02-26T14:21:06.831Z,4.37
2023-02-26T14:48:18.321Z,4.16
2023-02-26T15:13:58.768Z,3.35
2023-02-26T15:18:03.479Z,3.19
2023-02-26T15:33:12.208Z,3.20
2023-02-26T15:40:47.223Z,2.99
2023-02-26T15:52:38.640Z,2.62
2023-02-26T16:06:12.721Z,2.53
2023-02-26T16:10:24.880Z,2.50
2023-02-26T16:17:54.870Z,2.46
2023-02-26T16:21:48.855Z,2.38
2023-02-26T16:37:20.940Z,2.56
2023-02-26T16:48:06.445Z,2.70
2023-02-26T16:51:56.338Z,2.61
2023-02-26T16:55:43.190Z,2.63
2023-02-26T16:59:38.250Z,2.63
2023-02-26T17:13:53.685Z,2.33
2023-02-26T17:17:20.936Z,2.36
2023-02-26T17:21:37.322Z,2.33
2023-02-26T17:25:35.174Z,2.35
2023-02-26T17:29:39.579Z,2.44
2023-02-26T18:42:50.532Z,2.00
2023-02-26T19:06:45.085Z,1.98
2023-02-26T19:11:10.338Z,1.92
2023-02-26T19:14:52.053Z,1.77
2023-02-26T19:18:25.414Z,1.64
2023-02-26T19:29:49.511Z,1.75
2023-02-26T19:38:30.228Z,1.73
2023-02-26T19:42:28.244Z,1.83
2023-02-26T19:46:31.236Z,1.95
2023-02-26T19:50:22.644Z,1.89
2023-02-26T20:15:11.589Z,1.91
2023-02-26T20:19:07.041Z,2.03
2023-02-26T20:51:24.992Z,1.91
2023-02-26T20:59:19.253Z,1.81
2023-02-26T21:03:19.768Z,1.78
2023-02-26T21:07:24.217Z,1.83
2023-02-26T21:11:13.595Z,1.70
2023-02-26T21:20:23.351Z,1.46
2023-02-26T21:40:47.320Z,0.97
2023-02-26T21:52:32.837Z,1.14
2023-02-26T21:56:36.974Z,1.12
2023-02-26T22:00:29.480Z,1.10
2023-02-26T22:13:10.255Z,0.97
2023-02-26T22:17:05.352Z,1.12
2023-02-26T22:46:00.789Z,1.06
2023-02-26T22:50:33.319Z,1.06
2023-02-26T23:06:55.972Z,1.16
2023-02-26T23:10:47.026Z,1.32
2023-02-26T23:14:38.510Z,1.42
2023-02-26T23:18:55.732Z,1.39
2023-02-26T23:23:01.020Z,1.36
2023-02-26T23:27:04.744Z,1.43
2023-02-26T23:30:52.546Z,1.39
2023-02-26T23:34:45.437Z,1.16
2023-02-26T23:38:40.992Z,1.14
2023-02-26T23:42:50.100Z,1.18
2023-02-26T23:46:40.126Z,1.22
2023-02-26T23:50:30.249Z,1.15
2023-02-26T23:54:21.259Z,1.11
2023-02-26T23:58:22.181Z,1.06
